sensor_id;sensor_type;location;lat;lon;timestamp;temperature;humidity
26272;DHT22;13997;48.902;12.472;2022-11-11T05:28:59;128.20;2252.80
26272;DHT22;13997;48.902;12.472;2022-11-11T05:31:25;128.30;2252.80
26272;DHT22;13997;48.902;12.472;2022-11-11T05:33:50;128.40;2252.80
26272;DHT22;13997;48.902;12.472;2022-11-11T05:36:16;128.40;2252.80
26272;DHT22;13997;48.902;12.472;2022-11-11T05:38:42;128.40;2252.80
26272;DHT22;13997;48.902;12.472;2022-11-11T05:41:08;128.40;2252.80
26272;DHT22;13997;48.902;12.472;2022-11-11T05:43:33;128.30;2252.80
26272;DHT22;13997;48.902;12.472;2022-11-11T05:45:59;128.30;2252.80
26272;DHT22;13997;48.902;12.472;2022-11-11T05:48:25;128.30;2252.80
26272;DHT22;13997;48.902;12.472;2022-11-11T05:50:50;128.30;2252.80
26272;DHT22;13997;48.902;12.472;2022-11-11T05:53:16;128.30;2252.80
26272;DHT22;13997;48.902;12.472;2022-11-11T05:55:49;128.30;2252.80
26272;DHT22;13997;48.902;12.472;2022-11-11T05:58:16;128.30;2252.80
26272;DHT22;13997;48.902;12.472;2022-11-11T06:00:42;128.40;2252.80
26272;DHT22;13997;48.902;12.472;2022-11-11T06:30:05;128.20;2252.80
26272;DHT22;13997;48.902;12.472;2022-11-11T06:32:31;128.10;2252.80
26272;DHT22;13997;48.902;12.472;2022-11-11T06:35:15;128.20;2252.80
26272;DHT22;13997;48.902;12.472;2022-11-11T06:37:40;128.20;2252.80
26272;DHT22;13997;48.902;12.472;2022-11-11T06:40:06;128.20;2252.80
26272;DHT22;13997;48.902;12.472;2022-11-11T06:42:35;128.20;2252.80
26272;DHT22;13997;48.902;12.472;2022-11-11T06:45:02;128.20;2252.80
26272;DHT22;13997;48.902;12.472;2022-11-11T06:47:27;128.20;2252.80
26272;DHT22;13997;48.902;12.472;2022-11-11T06:49:53;128.20;2252.80
26272;DHT22;13997;48.902;12.472;2022-11-11T06:52:18;128.20;2252.80
26272;DHT22;13997;48.902;12.472;2022-11-11T06:54:44;128.20;2252.80
26272;DHT22;13997;48.902;12.472;2022-11-11T06:57:10;128.20;2252.80
26272;DHT22;13997;48.902;12.472;2022-11-11T06:59:35;128.20;2252.80
26272;DHT22;13997;48.902;12.472;2022-11-11T07:02:01;128.20;2252.80
26272;DHT22;13997;48.902;12.472;2022-11-11T07:04:26;128.20;2252.80
26272;DHT22;13997;48.902;12.472;2022-11-11T07:06:52;128.20;2252.80
26272;DHT22;13997;48.902;12.472;2022-11-11T07:09:17;128.20;2252.80
26272;DHT22;13997;48.902;12.472;2022-11-11T07:11:43;128.20;2252.80
26272;DHT22;13997;48.902;12.472;2022-11-11T07:14:08;128.20;2252.80
26272;DHT22;13997;48.902;12.472;2022-11-11T07:16:34;128.20;2252.80
26272;DHT22;13997;48.902;12.472;2022-11-11T07:18:59;128.20;2252.80
26272;DHT22;13997;48.902;12.472;2022-11-11T07:21:25;128.20;2252.80
26272;DHT22;13997;48.902;12.472;2022-11-11T07:23:51;128.20;2252.80
26272;DHT22;13997;48.902;12.472;2022-11-11T07:26:16;128.30;2252.80
26272;DHT22;13997;48.902;12.472;2022-11-11T07:28:42;128.30;2252.80
26272;DHT22;13997;48.902;12.472;2022-11-11T07:31:07;128.30;2252.80
26272;DHT22;13997;48.902;12.472;2022-11-11T07:33:33;128.30;2252.80
26272;DHT22;13997;48.902;12.472;2022-11-11T07:35:58;128.40;2252.80
26272;DHT22;13997;48.902;12.472;2022-11-11T07:38:24;128.40;2252.80
26272;DHT22;13997;48.902;12.472;2022-11-11T07:40:49;128.50;2252.80
26272;DHT22;13997;48.902;12.472;2022-11-11T07:43:15;128.50;2252.80
26272;DHT22;13997;48.902;12.472;2022-11-11T07:45:41;128.50;2252.80
26272;DHT22;13997;48.902;12.472;2022-11-11T07:48:07;128.60;2252.80
26272;DHT22;13997;48.902;12.472;2022-11-11T07:50:33;128.50;2252.80
26272;DHT22;13997;48.902;12.472;2022-11-11T07:52:58;128.50;2252.80
26272;DHT22;13997;48.902;12.472;2022-11-11T07:55:24;128.50;2252.80
26272;DHT22;13997;48.902;12.472;2022-11-11T07:57:52;128.60;2252.80
26272;DHT22;13997;48.902;12.472;2022-11-11T08:00:18;128.50;2252.80
26272;DHT22;13997;48.902;12.472;2022-11-11T08:02:50;128.50;2252.80
26272;DHT22;13997;48.902;12.472;2022-11-11T08:05:16;128.50;2252.80
26272;DHT22;13997;48.902;12.472;2022-11-11T08:07:41;128.60;2252.80
26272;DHT22;13997;48.902;12.472;2022-11-11T08:10:08;128.60;2252.80
26272;DHT22;13997;48.902;12.472;2022-11-11T08:12:34;128.60;2252.80
26272;DHT22;13997;48.902;12.472;2022-11-11T08:15:18;128.70;2252.80
26272;DHT22;13997;48.902;12.472;2022-11-11T08:17:44;128.80;2252.80
26272;DHT22;13997;48.902;12.472;2022-11-11T08:20:10;128.80;2252.80
26272;DHT22;13997;48.902;12.472;2022-11-11T08:22:40;128.90;2252.80
26272;DHT22;13997;48.902;12.472;2022-11-11T08:25:09;128.90;2252.80
26272;DHT22;13997;48.902;12.472;2022-11-11T08:27:35;153.60;2252.80
26272;DHT22;13997;48.902;12.472;2022-11-11T08:30:03;153.70;2252.80
26272;DHT22;13997;48.902;12.472;2022-11-11T08:32:29;153.70;2252.80
26272;DHT22;13997;48.902;12.472;2022-11-11T08:34:55;153.70;2252.80
26272;DHT22;13997;48.902;12.472;2022-11-11T08:37:20;153.70;2252.80
26272;DHT22;13997;48.902;12.472;2022-11-11T08:39:46;153.70;2252.80
26272;DHT22;13997;48.902;12.472;2022-11-11T08:42:12;153.70;2252.80
26272;DHT22;13997;48.902;12.472;2022-11-11T08:44:37;153.80;2252.80
26272;DHT22;13997;48.902;12.472;2022-11-11T08:47:03;153.80;2252.80
26272;DHT22;13997;48.902;12.472;2022-11-11T08:49:29;153.90;2252.80
26272;DHT22;13997;48.902;12.472;2022-11-11T08:51:54;153.90;2252.80
26272;DHT22;13997;48.902;12.472;2022-11-11T08:54:20;153.90;2252.80
26272;DHT22;13997;48.902;12.472;2022-11-11T08:56:45;153.90;2252.80
26272;DHT22;13997;48.902;12.472;2022-11-11T08:59:11;154.00;2252.80
26272;DHT22;13997;48.902;12.472;2022-11-11T09:01:37;154.00;2252.80
26272;DHT22;13997;48.902;12.472;2022-11-11T09:04:03;154.10;2252.80
26272;DHT22;13997;48.902;12.472;2022-11-11T09:06:30;154.10;2252.80
26272;DHT22;13997;48.902;12.472;2022-11-11T09:08:57;154.20;2252.80
26272;DHT22;13997;48.902;12.472;2022-11-11T09:11:22;154.20;2252.80
26272;DHT22;13997;48.902;12.472;2022-11-11T09:13:48;154.30;2252.80
26272;DHT22;13997;48.902;12.472;2022-11-11T09:16:15;154.20;2252.80
26272;DHT22;13997;48.902;12.472;2022-11-11T09:18:41;154.20;2252.80
26272;DHT22;13997;48.902;12.472;2022-11-11T09:21:07;154.10;2252.80
26272;DHT22;13997;48.902;12.472;2022-11-11T09:23:32;154.20;2252.80
26272;DHT22;13997;48.902;12.472;2022-11-11T09:26:01;154.20;2252.80
26272;DHT22;13997;48.902;12.472;2022-11-11T09:28:30;154.20;2252.80
26272;DHT22;13997;48.902;12.472;2022-11-11T09:30:59;154.20;2252.80
26272;DHT22;13997;48.902;12.472;2022-11-11T09:33:25;154.30;2252.80
26272;DHT22;13997;48.902;12.472;2022-11-11T09:35:50;154.30;2252.80
26272;DHT22;13997;48.902;12.472;2022-11-11T09:38:16;154.40;2252.80
26272;DHT22;13997;48.902;12.472;2022-11-11T09:51:23;179.20;2252.80
26272;DHT22;13997;48.902;12.472;2022-11-11T09:53:58;179.20;2252.80
26272;DHT22;13997;48.902;12.472;2022-11-11T09:56:26;179.20;2252.80
26272;DHT22;13997;48.902;12.472;2022-11-11T09:58:57;179.20;2252.80
26272;DHT22;13997;48.902;12.472;2022-11-11T10:01:28;179.30;2252.80
26272;DHT22;13997;48.902;12.472;2022-11-11T10:06:42;179.20;2252.80
26272;DHT22;13997;48.902;12.472;2022-11-11T10:09:26;179.30;2252.80
26272;DHT22;13997;48.902;12.472;2022-11-11T10:12:08;179.30;2252.80
26272;DHT22;13997;48.902;12.472;2022-11-11T10:14:38;179.40;2252.80
26272;DHT22;13997;48.902;12.472;2022-11-11T10:17:12;179.50;2252.80
26272;DHT22;13997;48.902;12.472;2022-11-11T11:23:03;205.00;2252.80
26272;DHT22;13997;48.902;12.472;2022-11-11T11:25:30;205.00;2252.80
26272;DHT22;13997;48.902;12.472;2022-11-11T11:28:11;205.00;2252.80
26272;DHT22;13997;48.902;12.472;2022-11-11T11:30:37;204.90;2252.80
26272;DHT22;13997;48.902;12.472;2022-11-11T11:33:07;180.10;2252.80
26272;DHT22;13997;48.902;12.472;2022-11-11T11:35:43;180.10;2252.80
26272;DHT22;13997;48.902;12.472;2022-11-11T11:38:10;180.10;2252.80
26272;DHT22;13997;48.902;12.472;2022-11-11T11:40:50;204.80;2252.80
26272;DHT22;13997;48.902;12.472;2022-11-11T11:45:57;180.10;2252.80
26272;DHT22;13997;48.902;12.472;2022-11-11T11:50:59;204.90;2252.80
26272;DHT22;13997;48.902;12.472;2022-11-11T12:07:11;204.90;2252.80
26272;DHT22;13997;48.902;12.472;2022-11-11T12:13:01;204.90;2252.80
26272;DHT22;13997;48.902;12.472;2022-11-11T12:15:33;205.00;2252.80
26272;DHT22;13997;48.902;12.472;2022-11-11T12:20:54;205.20;2252.80
26272;DHT22;13997;48.902;12.472;2022-11-11T12:23:42;205.40;2252.80
26272;DHT22;13997;48.902;12.472;2022-11-11T12:26:27;205.20;2252.80
26272;DHT22;13997;48.902;12.472;2022-11-11T12:31:57;205.40;2252.80
26272;DHT22;13997;48.902;12.472;2022-11-11T12:45:48;205.10;2252.80
26272;DHT22;13997;48.902;12.472;2022-11-11T12:48:34;205.10;2252.80
26272;DHT22;13997;48.902;12.472;2022-11-11T12:53:42;205.00;2252.80
26272;DHT22;13997;48.902;12.472;2022-11-11T12:56:23;205.00;2252.80
26272;DHT22;13997;48.902;12.472;2022-11-11T12:59:11;205.00;2252.80
26272;DHT22;13997;48.902;12.472;2022-11-11T13:02:07;205.10;2252.80
26272;DHT22;13997;48.902;12.472;2022-11-11T13:17:10;205.40;2252.80
26272;DHT22;13997;48.902;12.472;2022-11-11T13:20:15;205.40;2252.80
26272;DHT22;13997;48.902;12.472;2022-11-11T13:22:44;205.50;2252.80
26272;DHT22;13997;48.902;12.472;2022-11-11T13:25:17;205.50;2252.80
26272;DHT22;13997;48.902;12.472;2022-11-11T13:27:53;205.50;2252.80
26272;DHT22;13997;48.902;12.472;2022-11-11T13:37:32;205.60;2252.80
26272;DHT22;13997;48.902;12.472;2022-11-11T14:17:22;205.60;2252.80
26272;DHT22;13997;48.902;12.472;2022-11-11T14:53:37;205.40;2252.80
26272;DHT22;13997;48.902;12.472;2022-11-11T14:56:13;205.40;2252.80
26272;DHT22;13997;48.902;12.472;2022-11-11T14:58:39;205.40;2252.80
26272;DHT22;13997;48.902;12.472;2022-11-11T15:01:11;205.30;2252.80
26272;DHT22;13997;48.902;12.472;2022-11-11T15:03:44;205.30;2252.80
26272;DHT22;13997;48.902;12.472;2022-11-11T15:06:44;205.30;2252.80
26272;DHT22;13997;48.902;12.472;2022-11-11T15:12:21;205.40;2252.80
26272;DHT22;13997;48.902;12.472;2022-11-11T15:23:07;205.40;2252.80
26272;DHT22;13997;48.902;12.472;2022-11-11T15:31:08;205.20;2252.80
26272;DHT22;13997;48.902;12.472;2022-11-11T15:38:40;205.30;2252.80
26272;DHT22;13997;48.902;12.472;2022-11-11T15:41:26;205.30;2252.80
26272;DHT22;13997;48.902;12.472;2022-11-11T15:43:55;205.20;2252.80
26272;DHT22;13997;48.902;12.472;2022-11-11T15:46:29;205.20;2252.80
26272;DHT22;13997;48.902;12.472;2022-11-11T15:48:55;205.10;2252.80
26272;DHT22;13997;48.902;12.472;2022-11-11T15:53:47;205.10;2252.80
26272;DHT22;13997;48.902;12.472;2022-11-11T15:56:30;205.10;2252.80
26272;DHT22;13997;48.902;12.472;2022-11-11T15:58:56;205.10;2252.80
26272;DHT22;13997;48.902;12.472;2022-11-11T16:01:26;205.10;2252.80
26272;DHT22;13997;48.902;12.472;2022-11-11T16:03:53;205.00;2252.80
26272;DHT22;13997;48.902;12.472;2022-11-11T16:06:20;205.00;2252.80
26272;DHT22;13997;48.902;12.472;2022-11-11T16:08:49;205.00;2252.80
26272;DHT22;13997;48.902;12.472;2022-11-11T16:11:17;205.00;2252.80
26272;DHT22;13997;48.902;12.472;2022-11-11T16:13:56;205.00;2252.80
26272;DHT22;13997;48.902;12.472;2022-11-11T16:16:29;204.90;2252.80
26272;DHT22;13997;48.902;12.472;2022-11-11T16:21:46;204.80;2252.80
26272;DHT22;13997;48.902;12.472;2022-11-11T16:24:24;204.90;2252.80
26272;DHT22;13997;48.902;12.472;2022-11-11T16:26:51;204.90;2252.80
26272;DHT22;13997;48.902;12.472;2022-11-11T16:29:18;204.90;2252.80
26272;DHT22;13997;48.902;12.472;2022-11-11T16:31:44;205.00;2252.80
26272;DHT22;13997;48.902;12.472;2022-11-11T16:37:12;204.90;2252.80
26272;DHT22;13997;48.902;12.472;2022-11-11T16:39:40;204.80;2252.80
26272;DHT22;13997;48.902;12.472;2022-11-11T16:45:05;180.10;2252.80
26272;DHT22;13997;48.902;12.472;2022-11-11T16:50:13;204.80;2252.80
26272;DHT22;13997;48.902;12.472;2022-11-11T16:55:22;204.80;2252.80
26272;DHT22;13997;48.902;12.472;2022-11-11T16:57:49;204.80;2252.80
26272;DHT22;13997;48.902;12.472;2022-11-11T17:00:18;204.90;2252.80
26272;DHT22;13997;48.902;12.472;2022-11-11T17:02:45;204.90;2252.80
26272;DHT22;13997;48.902;12.472;2022-11-11T17:05:11;204.90;2252.80
26272;DHT22;13997;48.902;12.472;2022-11-11T17:07:39;204.80;2252.80
26272;DHT22;13997;48.902;12.472;2022-11-11T17:10:18;204.80;2252.80
26272;DHT22;13997;48.902;12.472;2022-11-11T17:12:44;204.80;2252.80
26272;DHT22;13997;48.902;12.472;2022-11-11T17:15:13;204.90;2252.80
26272;DHT22;13997;48.902;12.472;2022-11-11T17:17:41;204.90;2252.80
26272;DHT22;13997;48.902;12.472;2022-11-11T17:22:36;204.90;2252.80
26272;DHT22;13997;48.902;12.472;2022-11-11T17:25:02;204.90;2252.80
26272;DHT22;13997;48.902;12.472;2022-11-11T17:27:52;204.90;2252.80
26272;DHT22;13997;48.902;12.472;2022-11-11T17:30:24;204.90;2252.80
26272;DHT22;13997;48.902;12.472;2022-11-11T17:32:52;204.90;2252.80
26272;DHT22;13997;48.902;12.472;2022-11-11T17:35:20;204.80;2252.80
26272;DHT22;13997;48.902;12.472;2022-11-11T17:37:46;204.80;2252.80
26272;DHT22;13997;48.902;12.472;2022-11-11T17:40:12;180.10;2252.80
26272;DHT22;13997;48.902;12.472;2022-11-11T17:42:38;180.10;2252.80
26272;DHT22;13997;48.902;12.472;2022-11-11T17:45:04;180.00;2252.80
26272;DHT22;13997;48.902;12.472;2022-11-11T17:47:33;179.90;2252.80
26272;DHT22;13997;48.902;12.472;2022-11-11T17:49:59;179.90;2252.80
26272;DHT22;13997;48.902;12.472;2022-11-11T17:52:25;179.80;2252.80
26272;DHT22;13997;48.902;12.472;2022-11-11T17:54:50;179.70;2252.80
26272;DHT22;13997;48.902;12.472;2022-11-11T17:57:16;179.70;2252.80
26272;DHT22;13997;48.902;12.472;2022-11-11T17:59:42;179.70;2252.80
26272;DHT22;13997;48.902;12.472;2022-11-11T18:02:11;179.70;2252.80
26272;DHT22;13997;48.902;12.472;2022-11-11T18:04:38;179.70;2252.80
26272;DHT22;13997;48.902;12.472;2022-11-11T18:07:04;179.70;2252.80
26272;DHT22;13997;48.902;12.472;2022-11-11T18:09:31;179.60;2252.80
26272;DHT22;13997;48.902;12.472;2022-11-11T18:11:58;179.60;2252.80
26272;DHT22;13997;48.902;12.472;2022-11-11T18:14:24;179.70;2252.80
26272;DHT22;13997;48.902;12.472;2022-11-11T18:16:49;179.60;2252.80
26272;DHT22;13997;48.902;12.472;2022-11-11T18:19:15;179.60;2252.80
26272;DHT22;13997;48.902;12.472;2022-11-11T18:21:41;179.50;2252.80
26272;DHT22;13997;48.902;12.472;2022-11-11T18:24:08;179.50;2252.80
26272;DHT22;13997;48.902;12.472;2022-11-11T18:26:35;179.60;2252.80
26272;DHT22;13997;48.902;12.472;2022-11-11T18:29:11;179.40;2252.80
26272;DHT22;13997;48.902;12.472;2022-11-11T18:31:37;179.50;2252.80
26272;DHT22;13997;48.902;12.472;2022-11-11T18:34:03;179.50;2252.80
26272;DHT22;13997;48.902;12.472;2022-11-11T18:36:28;179.40;2252.80
26272;DHT22;13997;48.902;12.472;2022-11-11T18:38:55;179.40;2252.80
26272;DHT22;13997;48.902;12.472;2022-11-11T18:41:21;179.40;2252.80
26272;DHT22;13997;48.902;12.472;2022-11-11T18:43:49;179.50;2252.80
26272;DHT22;13997;48.902;12.472;2022-11-11T18:46:22;179.50;2252.80
26272;DHT22;13997;48.902;12.472;2022-11-11T18:48:55;179.50;2252.80
26272;DHT22;13997;48.902;12.472;2022-11-11T18:51:21;179.50;2252.80
26272;DHT22;13997;48.902;12.472;2022-11-11T18:53:47;179.60;2252.80
26272;DHT22;13997;48.902;12.472;2022-11-11T18:56:37;179.50;2252.80
26272;DHT22;13997;48.902;12.472;2022-11-11T18:59:22;179.30;2252.80
26272;DHT22;13997;48.902;12.472;2022-11-11T19:01:48;179.30;2252.80
26272;DHT22;13997;48.902;12.472;2022-11-11T19:04:14;179.30;2252.80
26272;DHT22;13997;48.902;12.472;2022-11-11T19:06:41;179.30;2252.80
26272;DHT22;13997;48.902;12.472;2022-11-11T19:09:12;179.30;2252.80
26272;DHT22;13997;48.902;12.472;2022-11-11T19:11:43;179.30;2252.80
26272;DHT22;13997;48.902;12.472;2022-11-11T19:14:10;179.20;2252.80
26272;DHT22;13997;48.902;12.472;2022-11-11T19:16:37;179.20;2252.80
26272;DHT22;13997;48.902;12.472;2022-11-11T19:19:21;179.30;2252.80
26272;DHT22;13997;48.902;12.472;2022-11-11T19:22:32;179.20;2252.80
26272;DHT22;13997;48.902;12.472;2022-11-11T19:24:57;179.20;2252.80
26272;DHT22;13997;48.902;12.472;2022-11-11T19:27:23;154.50;2252.80
26272;DHT22;13997;48.902;12.472;2022-11-11T19:29:49;179.20;2252.80
26272;DHT22;13997;48.902;12.472;2022-11-11T19:32:15;179.20;2252.80
26272;DHT22;13997;48.902;12.472;2022-11-11T19:34:41;179.30;2252.80
26272;DHT22;13997;48.902;12.472;2022-11-11T19:37:07;179.30;2252.80
26272;DHT22;13997;48.902;12.472;2022-11-11T19:39:35;179.30;2252.80
26272;DHT22;13997;48.902;12.472;2022-11-11T19:42:03;179.30;2252.80
26272;DHT22;13997;48.902;12.472;2022-11-11T19:44:29;179.30;2252.80
26272;DHT22;13997;48.902;12.472;2022-11-11T19:46:55;179.30;2252.80
26272;DHT22;13997;48.902;12.472;2022-11-11T19:49:20;179.40;2252.80
26272;DHT22;13997;48.902;12.472;2022-11-11T19:51:47;179.40;2252.80
26272;DHT22;13997;48.902;12.472;2022-11-11T19:54:15;179.40;2252.80
26272;DHT22;13997;48.902;12.472;2022-11-11T19:56:41;179.40;2252.80
26272;DHT22;13997;48.902;12.472;2022-11-11T19:59:08;179.40;2252.80
26272;DHT22;13997;48.902;12.472;2022-11-11T20:01:34;179.40;2252.80
26272;DHT22;13997;48.902;12.472;2022-11-11T20:04:01;179.40;2252.80
26272;DHT22;13997;48.902;12.472;2022-11-11T20:06:32;179.30;2252.80
26272;DHT22;13997;48.902;12.472;2022-11-11T20:09:06;179.40;2252.80
26272;DHT22;13997;48.902;12.472;2022-11-11T20:11:32;179.30;2252.80
26272;DHT22;13997;48.902;12.472;2022-11-11T20:14:13;179.40;2252.80
26272;DHT22;13997;48.902;12.472;2022-11-11T20:17:30;179.30;2252.80
26272;DHT22;13997;48.902;12.472;2022-11-11T20:19:56;179.40;2252.80
26272;DHT22;13997;48.902;12.472;2022-11-11T20:22:21;179.40;2252.80
26272;DHT22;13997;48.902;12.472;2022-11-11T20:25:18;179.40;2252.80
26272;DHT22;13997;48.902;12.472;2022-11-11T20:27:57;179.40;2252.80
26272;DHT22;13997;48.902;12.472;2022-11-11T20:30:22;179.50;2252.80
26272;DHT22;13997;48.902;12.472;2022-11-11T20:32:48;179.40;2252.80
26272;DHT22;13997;48.902;12.472;2022-11-11T20:38:42;179.30;2252.80
26272;DHT22;13997;48.902;12.472;2022-11-11T20:41:11;179.30;2252.80
26272;DHT22;13997;48.902;12.472;2022-11-11T20:43:58;179.30;2252.80
26272;DHT22;13997;48.902;12.472;2022-11-11T20:47:28;179.30;2252.80
26272;DHT22;13997;48.902;12.472;2022-11-11T20:50:44;179.20;2252.80
26272;DHT22;13997;48.902;12.472;2022-11-11T20:53:10;179.30;2252.80
26272;DHT22;13997;48.902;12.472;2022-11-11T20:58:59;179.20;2252.80
26272;DHT22;13997;48.902;12.472;2022-11-11T21:08:27;179.30;2252.80
26272;DHT22;13997;48.902;12.472;2022-11-11T21:10:56;179.30;2252.80
26272;DHT22;13997;48.902;12.472;2022-11-11T21:13:26;179.30;2252.80
26272;DHT22;13997;48.902;12.472;2022-11-11T21:19:48;179.40;2252.80
26272;DHT22;13997;48.902;12.472;2022-11-11T21:26:53;179.40;2252.80
26272;DHT22;13997;48.902;12.472;2022-11-11T21:36:42;154.50;2252.80
26272;DHT22;13997;48.902;12.472;2022-11-11T21:47:05;154.40;2252.80
26272;DHT22;13997;48.902;12.472;2022-11-11T21:54:10;154.30;2252.80
26272;DHT22;13997;48.902;12.472;2022-11-11T21:57:34;154.30;2252.80
26272;DHT22;13997;48.902;12.472;2022-11-11T22:00:51;154.30;2252.80
26272;DHT22;13997;48.902;12.472;2022-11-11T22:21:37;154.20;2252.80
26272;DHT22;13997;48.902;12.472;2022-11-11T22:24:05;154.10;2252.80
26272;DHT22;13997;48.902;12.472;2022-11-11T22:26:34;154.00;2252.80
26272;DHT22;13997;48.902;12.472;2022-11-11T22:32:47;154.00;2252.80
26272;DHT22;13997;48.902;12.472;2022-11-11T22:36:38;154.00;2252.80
26272;DHT22;13997;48.902;12.472;2022-11-11T22:43:54;154.10;2252.80
26272;DHT22;13997;48.902;12.472;2022-11-11T22:54:18;154.20;2252.80
26272;DHT22;13997;48.902;12.472;2022-11-11T23:11:43;154.50;2252.80
26272;DHT22;13997;48.902;12.472;2022-11-11T23:24:54;154.50;2252.80
26272;DHT22;13997;48.902;12.472;2022-11-11T23:27:41;179.20;2252.80
26272;DHT22;13997;48.902;12.472;2022-11-11T23:34:06;179.20;2252.80
26272;DHT22;13997;48.902;12.472;2022-11-11T23:43:50;154.40;2252.80
26272;DHT22;13997;48.902;12.472;2022-11-11T23:50:56;154.50;2252.80
26272;DHT22;13997;48.902;12.472;2022-11-11T23:54:02;154.50;2252.80
26272;DHT22;13997;48.902;12.472;2022-11-11T23:59:49;154.50;2252.80
